createdAt,value
2022-12-20T00:02:19.750Z,61.74
2022-12-20T00:12:25.123Z,61.58
2022-12-20T00:22:29.194Z,60.91
2022-12-20T00:32:33.477Z,61.69
2022-12-20T00:42:37.633Z,63.53
2022-12-20T00:52:42.635Z,64.82
2022-12-20T01:02:47.056Z,65.67
2022-12-20T01:12:51.279Z,65.36
2022-12-20T01:22:55.160Z,63.47
2022-12-20T01:32:59.128Z,63.92
2022-12-20T01:43:02.893Z,64.75
2022-12-20T01:53:07.174Z,63.78
2022-12-20T02:03:14.520Z,61.61
2022-12-20T02:13:28.116Z,60.15
2022-12-20T02:24:20.636Z,60.65
2022-12-20T02:34:26.735Z,61.53
2022-12-20T02:44:51.145Z,64.00
2022-12-20T02:54:56.139Z,66.06
2022-12-20T03:05:00.582Z,66.57
2022-12-20T03:15:05.667Z,67.23
2022-12-20T03:25:10.001Z,67.78
2022-12-20T03:35:14.941Z,68.94
2022-12-20T03:45:19.129Z,69.14
2022-12-20T03:55:24.470Z,69.62
2022-12-20T04:05:28.747Z,70.03
2022-12-20T04:15:34.777Z,70.44
2022-12-20T04:25:38.942Z,70.29
2022-12-20T04:35:44.772Z,69.70
2022-12-20T04:45:51.085Z,68.77
2022-12-20T04:55:56.484Z,68.17
2022-12-20T05:06:02.095Z,67.18
2022-12-20T05:16:08.222Z,67.05
2022-12-20T05:26:19.175Z,68.63
2022-12-20T05:36:24.051Z,69.49
2022-12-20T05:46:28.160Z,69.86
2022-12-20T05:56:37.553Z,70.55
2022-12-20T06:06:42.098Z,70.84
2022-12-20T06:16:47.551Z,71.17
2022-12-20T06:26:55.053Z,71.88
2022-12-20T06:37:01.928Z,71.63
2022-12-20T06:47:09.346Z,72.26
2022-12-20T06:57:13.719Z,72.43
2022-12-20T07:07:19.189Z,73.15
2022-12-20T07:17:23.087Z,73.70
2022-12-20T07:27:27.176Z,73.41
2022-12-20T07:37:31.798Z,73.22
2022-12-20T07:47:36.438Z,73.15
2022-12-20T07:57:49.839Z,72.74
2022-12-20T08:07:59.575Z,72.45
2022-12-20T08:18:03.799Z,72.14
2022-12-20T08:28:07.576Z,72.13
2022-12-20T08:38:11.540Z,71.34
2022-12-20T08:48:15.678Z,70.48
2022-12-20T08:58:20.918Z,70.81
2022-12-20T09:08:24.800Z,70.66
2022-12-20T09:18:28.662Z,70.44
2022-12-20T09:28:34.596Z,69.04
2022-12-20T09:38:38.537Z,67.11
2022-12-20T09:48:44.340Z,67.57
2022-12-20T09:59:07.769Z,67.52
2022-12-20T10:09:41.108Z,67.74
2022-12-20T10:20:09.762Z,67.92
2022-12-20T10:30:25.709Z,67.78
2022-12-20T10:41:09.992Z,67.64
2022-12-20T10:51:16.102Z,67.81
2022-12-20T11:01:23.272Z,68.05
2022-12-20T11:11:27.928Z,67.56
2022-12-20T11:21:34.869Z,67.15
2022-12-20T11:32:15.872Z,67.26
2022-12-20T11:42:32.638Z,66.99
2022-12-20T11:52:44.246Z,66.38
2022-12-20T12:02:59.653Z,66.28
2022-12-20T12:13:24.257Z,65.62
2022-12-20T12:23:58.621Z,65.16
2022-12-20T12:34:25.190Z,65.09
2022-12-20T12:44:55.374Z,65.26
2022-12-20T12:54:59.649Z,64.75
2022-12-20T13:05:09.659Z,65.46
2022-12-20T13:15:23.359Z,66.45
2022-12-20T13:25:31.884Z,66.61
2022-12-20T13:35:57.165Z,65.88
2022-12-20T13:46:10.295Z,66.19
2022-12-20T13:56:50.891Z,66.84
2022-12-20T14:06:59.406Z,68.00
2022-12-20T14:17:41.208Z,68.96
2022-12-20T14:27:49.623Z,69.74
2022-12-20T14:38:02.959Z,70.85
2022-12-20T14:48:16.976Z,71.91
2022-12-20T14:58:34.853Z,72.75
2022-12-20T15:08:39.030Z,73.42
2022-12-20T15:18:43.794Z,73.93
2022-12-20T15:28:48.109Z,74.42
2022-12-20T15:39:14.178Z,74.97
2022-12-20T15:49:22.424Z,75.27
2022-12-20T16:09:53.023Z,75.93
2022-12-20T16:19:57.533Z,75.90
2022-12-20T16:30:02.287Z,75.96
2022-12-20T16:40:07.929Z,76.56
2022-12-20T16:50:13.003Z,76.74
2022-12-20T17:00:20.878Z,76.93
2022-12-20T17:10:27.366Z,77.09
2022-12-20T17:20:36.618Z,77.10
2022-12-20T17:30:41.230Z,76.32
2022-12-20T17:40:45.519Z,75.25
2022-12-20T17:50:49.896Z,75.14
2022-12-20T18:00:54.844Z,75.21
2022-12-20T18:10:59.462Z,74.73
2022-12-20T18:21:12.068Z,75.16
2022-12-20T18:31:21.621Z,75.69
2022-12-20T18:41:28.902Z,75.69
2022-12-20T18:51:37.106Z,76.06
2022-12-20T19:01:43.367Z,75.81
2022-12-20T19:11:53.057Z,75.94
2022-12-20T19:22:02.218Z,75.55
2022-12-20T19:32:07.172Z,75.06
2022-12-20T19:42:24.228Z,75.24
2022-12-20T19:52:30.456Z,74.88
2022-12-20T20:02:36.417Z,74.22
2022-12-20T20:12:41.567Z,74.97
2022-12-20T20:22:46.586Z,74.19
2022-12-20T20:32:52.675Z,73.65
2022-12-20T20:42:57.418Z,74.20
2022-12-20T20:53:02.494Z,73.85
2022-12-20T21:03:07.354Z,74.40
2022-12-20T21:13:12.757Z,74.15
2022-12-20T21:23:17.054Z,74.20
2022-12-20T21:33:21.431Z,74.61
2022-12-20T21:43:26.431Z,75.15
2022-12-20T21:53:32.019Z,75.54
2022-12-20T22:03:37.547Z,75.91
2022-12-20T22:13:42.571Z,76.33
2022-12-20T22:23:47.353Z,76.55
2022-12-20T22:33:55.302Z,76.91
2022-12-20T22:44:00.618Z,76.85
2022-12-20T22:54:05.902Z,76.58
2022-12-20T23:04:09.674Z,77.15
2022-12-20T23:14:37.940Z,77.27
2022-12-20T23:24:42.271Z,78.21
2022-12-20T23:34:46.406Z,78.23
2022-12-20T23:44:50.314Z,78.26
2022-12-20T23:54:54.287Z,78.27
